Time;durP1;ratioP1;P1;durP2;ratioP2;P2;SDS_P1;SDS_P2;PMS_P1;PMS_P2;Temp;Humidity;BMP_temperature;BMP_pressure;BME280_temperature;BME280_humidity;BME280_pressure;Samples;Min_cycle;Max_cycle;Signal;HPM_P1;HPM_P2
2021/10/22 00:01:35;;;;;;;2.10;1.73;;;10.60;99.90;;;;;;5091009;28;20571;-57
2021/10/22 00:04:05;;;;;;;2.17;1.60;;;10.60;99.90;;;;;;5091377;28;20482;-57
2021/10/22 00:06:32;;;;;;;1.70;1.60;;;10.60;99.90;;;;;;5091446;28;21005;-58
2021/10/22 00:08:59;;;;;;;2.90;2.03;;;10.60;99.90;;;;;;5091431;28;20476;-57
2021/10/22 00:11:26;;;;;;;2.70;1.53;;;10.50;99.90;;;;;;5091307;28;20461;-57
2021/10/22 00:13:53;;;;;;;3.17;2.00;;;10.50;99.90;;;;;;5091485;28;20531;-58
2021/10/22 00:16:22;;;;;;;3.90;2.00;;;10.30;99.90;;;;;;5091801;28;20520;-58
2021/10/22 00:18:49;;;;;;;4.40;2.13;;;10.30;99.90;;;;;;5091045;28;20446;-57
2021/10/22 00:21:17;;;;;;;5.37;2.10;;;10.30;99.90;;;;;;5090636;28;20491;-57
2021/10/22 00:23:44;;;;;;;3.50;2.23;;;10.40;99.90;;;;;;5091485;28;20481;-57
2021/10/22 00:26:11;;;;;;;4.43;2.27;;;10.40;99.90;;;;;;5091134;28;20478;-57
2021/10/22 00:28:39;;;;;;;2.70;1.63;;;10.20;99.90;;;;;;5091463;28;20450;-58
2021/10/22 00:31:06;;;;;;;1.93;1.50;;;10.20;99.90;;;;;;5084448;28;20450;-58
2021/10/22 00:33:33;;;;;;;3.20;1.67;;;10.20;99.90;;;;;;5091709;28;20445;-58
2021/10/22 00:36:02;;;;;;;1.97;1.67;;;10.40;99.90;;;;;;5091523;28;20469;-57
2021/10/22 00:38:31;;;;;;;1.63;1.40;;;10.40;99.90;;;;;;5091475;28;20453;-57
2021/10/22 00:40:58;;;;;;;4.83;1.83;;;10.50;99.90;;;;;;5090530;28;20466;-57
2021/10/22 00:43:29;;;;;;;3.40;1.70;;;10.60;99.90;;;;;;5091096;28;20511;-57
2021/10/22 00:45:56;;;;;;;2.60;1.70;;;10.50;99.90;;;;;;5091482;28;20472;-56
2021/10/22 00:48:24;;;;;;;2.73;1.27;;;10.50;99.90;;;;;;5091240;28;20492;-56
2021/10/22 00:50:55;;;;;;;4.30;1.57;;;10.50;99.90;;;;;;5090546;28;20506;-57
2021/10/22 00:53:22;;;;;;;1.53;1.43;;;10.50;99.90;;;;;;5091311;28;20468;-56
2021/10/22 00:55:51;;;;;;;1.83;1.60;;;10.50;99.90;;;;;;5091143;28;20995;-57
2021/10/22 00:58:18;;;;;;;2.43;1.30;;;10.70;99.90;;;;;;5091084;28;20449;-57
2021/10/22 01:00:46;;;;;;;3.40;1.83;;;10.70;99.90;;;;;;5090722;28;20461;-57
2021/10/22 01:03:15;;;;;;;2.90;2.30;;;10.60;99.90;;;;;;5090292;28;20510;-57
2021/10/22 01:05:45;;;;;;;2.23;1.90;;;10.50;99.90;;;;;;5090893;28;20473;-57
2021/10/22 01:08:13;;;;;;;3.03;1.80;;;10.50;99.90;;;;;;5091396;28;20477;-58
2021/10/22 01:10:41;;;;;;;2.90;1.87;;;10.40;99.90;;;;;;5090613;28;20446;-57
2021/10/22 01:13:09;;;;;;;4.30;1.90;;;10.30;99.90;;;;;;5091136;28;20446;-59
2021/10/22 01:15:37;;;;;;;4.13;1.50;;;10.20;99.90;;;;;;5090685;28;20466;-56
2021/10/22 01:18:04;;;;;;;2.03;1.50;;;10.30;99.90;;;;;;5090450;28;20477;-58
2021/10/22 01:20:31;;;;;;;3.40;1.67;;;10.30;99.90;;;;;;5090035;28;20450;-57
2021/10/22 01:23:00;;;;;;;1.67;1.57;;;10.30;99.90;;;;;;5091013;28;20898;-56
2021/10/22 01:25:29;;;;;;;1.63;1.53;;;10.40;99.90;;;;;;5090760;28;20486;-58
2021/10/22 01:27:57;;;;;;;1.70;1.60;;;10.50;99.90;;;;;;5090586;28;20465;-56
2021/10/22 01:30:26;;;;;;;1.97;1.50;;;10.50;99.90;;;;;;5091807;28;20850;-59
2021/10/22 01:32:57;;;;;;;1.77;1.50;;;10.40;99.90;;;;;;5094628;28;20842;-59
2021/10/22 01:35:24;;;;;;;6.90;1.80;;;10.40;99.90;;;;;;5093857;28;20974;-56
2021/10/22 01:37:51;;;;;;;1.93;1.60;;;10.40;99.90;;;;;;5094759;28;20502;-59
2021/10/22 01:40:20;;;;;;;2.60;1.50;;;10.40;99.90;;;;;;5093440;28;20504;-57
2021/10/22 01:42:47;;;;;;;3.27;1.63;;;10.50;99.90;;;;;;5094310;28;20470;-57
2021/10/22 01:45:14;;;;;;;2.57;1.57;;;10.60;99.90;;;;;;5093825;28;20482;-58
2021/10/22 01:54:25;;;;;;;2.23;1.83;;;10.50;99.90;;;;;;5093285;28;20490;-57
2021/10/22 01:56:54;;;;;;;3.20;1.80;;;10.50;99.90;;;;;;5094167;28;20453;-58
2021/10/22 01:59:21;;;;;;;4.07;1.73;;;10.50;99.90;;;;;;5094291;28;20551;-57
2021/10/22 02:01:48;;;;;;;3.23;2.10;;;10.50;99.90;;;;;;5094049;28;20446;-58
2021/10/22 02:04:15;;;;;;;1.90;1.73;;;10.40;99.90;;;;;;5093407;28;20477;-57
2021/10/22 02:06:42;;;;;;;1.63;1.50;;;10.50;99.90;;;;;;5094063;28;20939;-58
2021/10/22 02:09:09;;;;;;;2.13;1.60;;;10.50;99.90;;;;;;5094036;28;20450;-57
2021/10/22 02:11:36;;;;;;;2.53;1.73;;;10.40;99.90;;;;;;5093833;28;20506;-58
2021/10/22 02:14:04;;;;;;;1.97;1.50;;;10.40;99.90;;;;;;5093082;28;20442;-57
2021/10/22 02:16:31;;;;;;;4.00;1.63;;;10.40;99.90;;;;;;5093813;28;20944;-57
2021/10/22 02:18:58;;;;;;;5.07;1.83;;;10.20;99.90;;;;;;5093265;28;20450;-57
2021/10/22 02:21:25;;;;;;;2.37;1.50;;;10.30;99.90;;;;;;5093923;28;20450;-57
2021/10/22 02:23:53;;;;;;;2.57;1.57;;;10.30;99.90;;;;;;5093210;28;20503;-57
2021/10/22 02:26:20;;;;;;;2.60;1.70;;;10.30;99.90;;;;;;5093636;28;20472;-57
2021/10/22 02:28:47;;;;;;;4.50;2.10;;;10.30;99.90;;;;;;5093265;28;20450;-56
2021/10/22 02:31:16;;;;;;;4.93;2.03;;;10.30;99.90;;;;;;5085403;28;20451;-57
2021/10/22 02:33:44;;;;;;;2.30;1.70;;;10.30;99.90;;;;;;5093529;28;20958;-57
2021/10/22 02:36:11;;;;;;;2.97;1.30;;;10.40;99.90;;;;;;5092996;28;20469;-58
2021/10/22 02:38:37;;;;;;;4.00;1.73;;;10.50;99.90;;;;;;5093263;28;20508;-57
2021/10/22 02:41:04;;;;;;;4.57;1.60;;;10.50;99.90;;;;;;5092291;28;20449;-58
2021/10/22 02:43:31;;;;;;;3.50;1.80;;;10.50;99.90;;;;;;5093409;28;20449;-57
2021/10/22 02:45:58;;;;;;;3.37;2.03;;;10.60;99.90;;;;;;5093224;28;20489;-56
2021/10/22 02:48:27;;;;;;;3.67;1.70;;;10.60;99.90;;;;;;5092905;28;20499;-56
2021/10/22 02:50:54;;;;;;;3.10;1.73;;;10.40;99.90;;;;;;5092894;28;20518;-57
2021/10/22 02:53:21;;;;;;;3.50;1.47;;;10.50;99.90;;;;;;5092936;28;20503;-58
2021/10/22 02:55:48;;;;;;;6.97;1.87;;;10.40;99.90;;;;;;5092765;28;20478;-56
2021/10/22 02:58:15;;;;;;;2.10;1.60;;;10.40;99.90;;;;;;5092750;28;20477;-58
2021/10/22 03:00:44;;;;;;;5.47;1.97;;;10.50;99.90;;;;;;5092797;28;20519;-57
2021/10/22 03:03:11;;;;;;;2.57;1.30;;;10.30;99.90;;;;;;5093256;28;20445;-57
2021/10/22 03:05:43;;;;;;;4.77;2.50;;;10.30;99.90;;;;;;5092971;28;20901;-56
2021/10/22 03:08:10;;;;;;;3.83;1.90;;;10.30;99.90;;;;;;5092493;28;20482;-56
2021/10/22 03:10:37;;;;;;;3.20;2.00;;;10.30;99.90;;;;;;5092056;28;20861;-57
2021/10/22 03:13:04;;;;;;;2.70;1.80;;;10.40;99.90;;;;;;5092535;28;20523;-57
2021/10/22 03:15:31;;;;;;;5.40;2.43;;;10.40;99.90;;;;;;5092650;28;20469;-57
2021/10/22 03:17:58;;;;;;;2.40;2.03;;;10.40;99.90;;;;;;5092354;28;20457;-57
2021/10/22 03:20:26;;;;;;;2.10;1.90;;;10.40;99.90;;;;;;5092644;28;20445;-58
2021/10/22 03:22:54;;;;;;;4.33;2.37;;;10.40;99.90;;;;;;5092431;28;20963;-57
2021/10/22 03:25:21;;;;;;;3.20;1.80;;;10.50;99.90;;;;;;5091909;28;20535;-57
2021/10/22 03:27:49;;;;;;;3.30;2.00;;;10.50;99.90;;;;;;5092411;28;20450;-57
2021/10/22 03:30:16;;;;;;;4.17;2.10;;;10.50;99.90;;;;;;5091923;28;20565;-58
2021/10/22 03:32:43;;;;;;;2.30;1.57;;;10.50;99.90;;;;;;5091803;28;20443;-57
2021/10/22 03:35:10;;;;;;;3.47;2.27;;;10.40;99.90;;;;;;5092451;28;20481;-57
2021/10/22 03:37:37;;;;;;;3.40;1.83;;;10.40;99.90;;;;;;5091912;28;20951;-57
2021/10/22 03:40:07;;;;;;;1.90;1.53;;;10.30;99.90;;;;;;5091826;28;20449;-57
2021/10/22 03:42:34;;;;;;;2.50;2.00;;;10.20;99.90;;;;;;5091210;28;20454;-57
2021/10/22 03:45:01;;;;;;;2.43;1.70;;;10.20;99.90;;;;;;5092323;28;20482;-57
2021/10/22 03:47:28;;;;;;;4.43;2.00;;;10.10;99.90;;;;;;5092259;28;20460;-57
2021/10/22 03:49:55;;;;;;;2.77;2.00;;;10.20;99.90;;;;;;5091126;28;20445;-57
2021/10/22 03:52:22;;;;;;;2.77;1.80;;;10.10;99.90;;;;;;5090904;28;20446;-57
2021/10/22 03:54:50;;;;;;;2.00;1.80;;;10.20;99.90;;;;;;5091557;28;20470;-57
2021/10/22 03:57:18;;;;;;;2.07;1.87;;;10.10;99.90;;;;;;5098470;22;20552;-54
2021/10/22 03:59:46;;;;;;;5.03;2.70;;;10.10;99.90;;;;;;5071544;28;20477;-54
2021/10/22 04:02:12;;;;;;;4.70;1.80;;;10.10;99.90;;;;;;5071881;28;20449;-54
2021/10/22 04:04:39;;;;;;;6.93;4.10;;;10.00;99.90;;;;;;5071966;28;20536;-54
2021/10/22 04:07:06;;;;;;;9.20;4.17;;;10.00;99.90;;;;;;5071581;28;20474;-54
2021/10/22 04:09:35;;;;;;;4.53;2.50;;;10.10;99.90;;;;;;5071818;28;20516;-54
2021/10/22 04:12:02;;;;;;;3.87;2.23;;;10.00;99.90;;;;;;5071322;28;20534;-54
2021/10/22 04:14:30;;;;;;;3.97;2.20;;;10.00;99.90;;;;;;5071575;28;20501;-54
2021/10/22 04:16:59;;;;;;;3.47;1.80;;;10.00;99.90;;;;;;5070504;28;21057;-54
2021/10/22 04:19:26;;;;;;;1.70;1.60;;;10.00;99.90;;;;;;5071787;28;20454;-54
2021/10/22 04:21:54;;;;;;;2.40;1.60;;;10.00;99.90;;;;;;5071558;28;20450;-54
2021/10/22 04:24:22;;;;;;;2.50;2.03;;;10.00;99.90;;;;;;5071510;28;20933;-54
2021/10/22 04:26:50;;;;;;;3.67;1.87;;;10.00;99.90;;;;;;5070370;28;20480;-54
2021/10/22 04:29:17;;;;;;;4.40;1.80;;;9.90;99.90;;;;;;5071074;28;20479;-54
2021/10/22 04:31:45;;;;;;;6.07;2.30;;;10.00;99.90;;;;;;5070492;28;20450;-54
2021/10/22 04:34:12;;;;;;;3.20;1.97;;;9.90;99.90;;;;;;5071555;28;20454;-54
2021/10/22 04:36:40;;;;;;;2.53;2.33;;;10.00;99.90;;;;;;5071382;28;20466;-54
2021/10/22 04:41:52;;;;;;;3.00;2.70;;;10.00;99.90;;;;;;5070979;28;20967;-54
2021/10/22 04:44:19;;;;;;;2.30;2.10;;;10.00;99.90;;;;;;5071060;28;20983;-54
2021/10/22 04:46:49;;;;;;;3.03;2.30;;;10.00;99.90;;;;;;5070786;28;20477;-54
2021/10/22 04:49:17;;;;;;;4.03;2.50;;;10.00;99.90;;;;;;5071218;28;20513;-54
2021/10/22 04:51:44;;;;;;;4.10;2.60;;;9.90;99.90;;;;;;5071108;28;20533;-54
2021/10/22 04:54:11;;;;;;;3.90;2.70;;;9.90;99.90;;;;;;5071120;28;20870;-54
2021/10/22 04:56:37;;;;;;;3.17;2.30;;;10.00;99.90;;;;;;5071064;28;20482;-55
2021/10/22 04:59:04;;;;;;;4.80;2.90;;;9.90;99.90;;;;;;5071014;28;20447;-54
2021/10/22 05:01:32;;;;;;;3.43;2.90;;;10.00;99.90;;;;;;5070401;28;20496;-54
2021/10/22 05:04:00;;;;;;;6.23;2.93;;;10.00;99.90;;;;;;5072027;28;20518;-54
2021/10/22 05:06:27;;;;;;;3.47;2.53;;;10.00;99.90;;;;;;5074962;28;20482;-54
2021/10/22 05:08:54;;;;;;;4.87;2.93;;;10.00;99.90;;;;;;5075106;28;20879;-54
2021/10/22 05:11:21;;;;;;;4.60;2.90;;;10.10;99.90;;;;;;5074407;28;20446;-54
2021/10/22 05:13:49;;;;;;;4.30;3.40;;;10.00;99.90;;;;;;5075056;28;20450;-54
2021/10/22 05:16:16;;;;;;;5.00;3.80;;;10.00;99.90;;;;;;5074484;28;20466;-54
2021/10/22 05:18:43;;;;;;;13.03;10.00;;;10.00;99.90;;;;;;5072921;28;20503;-54
2021/10/22 05:21:12;;;;;;;11.87;9.07;;;10.00;99.90;;;;;;5073703;28;20458;-54
2021/10/22 05:23:39;;;;;;;9.40;7.07;;;10.00;99.90;;;;;;5074507;28;20948;-54
2021/10/22 05:26:06;;;;;;;8.90;5.67;;;10.00;99.90;;;;;;5074648;28;20567;-54
2021/10/22 05:28:33;;;;;;;7.33;5.67;;;9.90;99.90;;;;;;5074751;28;20450;-54
2021/10/22 05:31:00;;;;;;;8.90;4.80;;;9.90;99.90;;;;;;5074174;28;20880;-54
2021/10/22 05:33:27;;;;;;;6.40;4.37;;;9.90;99.90;;;;;;5074322;28;20508;-54
2021/10/22 05:35:54;;;;;;;6.40;3.87;;;10.00;99.90;;;;;;5074771;28;20466;-54
2021/10/22 05:38:22;;;;;;;6.60;3.20;;;10.00;99.90;;;;;;5074559;28;20458;-54
2021/10/22 05:40:49;;;;;;;4.37;3.00;;;10.10;99.90;;;;;;5074242;28;20941;-54
2021/10/22 05:43:17;;;;;;;5.20;2.87;;;10.00;99.90;;;;;;5074143;28;20450;-54
2021/10/22 05:45:46;;;;;;;9.23;3.30;;;10.10;99.90;;;;;;5073692;28;20481;-54
2021/10/22 05:48:13;;;;;;;7.37;3.70;;;10.00;99.90;;;;;;5074389;28;20439;-54
2021/10/22 05:50:42;;;;;;;9.30;6.33;;;10.10;99.90;;;;;;5074037;28;20450;-54
2021/10/22 05:53:09;;;;;;;8.23;5.43;;;10.00;99.90;;;;;;5073967;28;20450;-54
2021/10/22 05:55:38;;;;;;;6.87;4.40;;;10.00;99.90;;;;;;5073521;28;20445;-54
2021/10/22 05:58:06;;;;;;;5.80;3.73;;;10.10;99.90;;;;;;5073604;28;20534;-54
2021/10/22 06:00:34;;;;;;;6.50;3.93;;;10.10;99.90;;;;;;5073285;28;21039;-54
2021/10/22 06:03:01;;;;;;;8.40;4.27;;;10.10;99.90;;;;;;5072529;28;20446;-53
2021/10/22 06:05:28;;;;;;;3.47;3.00;;;10.10;99.90;;;;;;5073213;28;20547;-53
2021/10/22 06:07:55;;;;;;;4.30;3.37;;;10.10;99.90;;;;;;5068560;28;20953;-54
2021/10/22 06:10:23;;;;;;;5.10;3.17;;;10.10;99.90;;;;;;5072481;28;20455;-54
2021/10/22 06:12:51;;;;;;;4.33;3.20;;;10.10;99.90;;;;;;5073729;28;20512;-54
2021/10/22 06:15:18;;;;;;;5.10;3.03;;;10.10;99.90;;;;;;5072936;28;20458;-53
2021/10/22 06:17:45;;;;;;;11.60;3.80;;;10.00;99.90;;;;;;5073344;28;20471;-54
2021/10/22 06:20:14;;;;;;;7.60;5.10;;;10.00;99.90;;;;;;5073461;28;20455;-54
2021/10/22 06:25:35;;;;;;;6.93;4.60;;;10.00;99.90;;;;;;5057363;28;20554;-54
2021/10/22 06:28:04;;;;;;;7.90;4.03;;;10.10;99.90;;;;;;5072909;28;20462;-54
2021/10/22 06:30:31;;;;;;;7.00;4.55;;;10.10;99.90;;;;;;5068247;28;20442;-53
2021/10/22 06:32:58;;;;;;;7.70;4.57;;;10.20;99.90;;;;;;5073353;28;20204;-54
2021/10/22 06:35:25;;;;;;;7.20;3.63;;;10.20;99.90;;;;;;5072373;28;20933;-54
2021/10/22 06:37:54;;;;;;;4.83;2.73;;;10.20;99.90;;;;;;5072578;28;20534;-53
2021/10/22 06:40:21;;;;;;;7.77;3.27;;;10.30;99.90;;;;;;5071459;28;21009;-53
2021/10/22 06:42:50;;;;;;;5.33;2.87;;;10.40;99.90;;;;;;5072814;28;20530;-53
2021/10/22 06:45:19;;;;;;;4.33;3.00;;;10.50;99.90;;;;;;5065936;28;20455;-54
2021/10/22 06:47:47;;;;;;;6.60;2.97;;;10.50;99.90;;;;;;5071841;28;20993;-53
2021/10/22 06:50:15;;;;;;;5.60;2.90;;;10.40;99.90;;;;;;5072873;28;20560;-58
2021/10/22 06:52:42;;;;;;;5.10;3.13;;;10.40;99.90;;;;;;5072069;28;20457;-54
2021/10/22 06:55:10;;;;;;;4.77;3.43;;;10.40;99.90;;;;;;5071421;28;20504;-54
2021/10/22 06:57:40;;;;;;;5.27;4.07;;;10.40;99.90;;;;;;5071337;28;20562;-54
2021/10/22 07:00:08;;;;;;;4.60;2.20;;;10.20;99.90;;;;;;5072893;28;20455;-53
2021/10/22 07:02:47;;;;;;;6.80;2.30;;;9.90;99.90;;;;;;5072660;28;20975;-54
2021/10/22 07:05:25;;;;;;;11.00;4.00;;;9.80;99.90;;;;;;5072492;28;20479;-54
2021/10/22 07:07:51;;;;;;;5.13;2.20;;;9.90;99.90;;;;;;5072250;28;20457;-54
2021/10/22 07:10:18;;;;;;;4.33;2.40;;;10.00;99.90;;;;;;5071769;28;20475;-54
2021/10/22 07:12:46;;;;;;;5.10;2.70;;;10.10;99.90;;;;;;5071971;28;20538;-54
2021/10/22 07:15:14;;;;;;;5.30;3.07;;;10.10;99.90;;;;;;5072557;28;20537;-55
2021/10/22 07:17:42;;;;;;;5.10;3.00;;;10.00;99.90;;;;;;5071440;28;21024;-56
2021/10/22 07:20:11;;;;;;;5.77;3.00;;;10.10;99.90;;;;;;5072130;28;20515;-55
2021/10/22 07:22:47;;;;;;;4.20;2.87;;;10.10;99.90;;;;;;5071661;28;20465;-55
2021/10/22 07:25:15;;;;;;;4.30;2.33;;;10.10;99.90;;;;;;5070412;28;20476;-55
2021/10/22 07:27:42;;;;;;;9.10;2.77;;;10.10;99.90;;;;;;5070744;28;20553;-55
2021/10/22 07:30:10;;;;;;;2.83;2.10;;;10.20;99.90;;;;;;5071993;28;20529;-55
2021/10/22 07:32:37;;;;;;;2.37;1.20;;;10.20;99.90;;;;;;5071392;28;20500;-54
2021/10/22 07:35:08;;;;;;;2.73;1.20;;;10.30;99.90;;;;;;5071990;28;20453;-55
2021/10/22 07:37:35;;;;;;;1.50;1.30;;;10.30;99.90;;;;;;5071818;28;20478;-55
2021/10/22 07:40:03;;;;;;;1.20;1.10;;;10.40;99.90;;;;;;5071797;28;20454;-56
2021/10/22 07:42:30;;;;;;;2.00;1.30;;;10.60;99.90;;;;;;5071592;28;20514;-55
2021/10/22 07:44:59;;;;;;;3.63;1.10;;;10.80;99.90;;;;;;5071509;28;20504;-56
2021/10/22 07:47:27;;;;;;;0.90;0.80;;;11.00;99.90;;;;;;5071152;28;21060;-55
2021/10/22 07:49:56;;;;;;;0.80;0.70;;;10.90;99.90;;;;;;5072005;28;20492;-55
2021/10/22 07:52:27;;;;;;;1.40;0.80;;;10.80;99.90;;;;;;5071461;28;20453;-55
2021/10/22 07:54:57;;;;;;;2.73;1.20;;;10.70;99.90;;;;;;5071322;28;20500;-54
2021/10/22 07:57:24;;;;;;;3.00;1.43;;;10.40;99.90;;;;;;5069846;28;20474;-54
2021/10/22 07:59:51;;;;;;;1.90;1.80;;;10.10;99.90;;;;;;5071614;28;20446;-54
2021/10/22 08:02:21;;;;;;;1.30;1.20;;;9.90;99.90;;;;;;5071628;28;20442;-54
2021/10/22 08:04:50;;;;;;;0.90;0.90;;;9.60;99.90;;;;;;5071747;28;20482;-55
2021/10/22 08:07:20;;;;;;;1.40;1.10;;;9.60;99.90;;;;;;5070488;28;20537;-55
2021/10/22 08:09:50;;;;;;;1.30;1.20;;;9.70;99.90;;;;;;5070358;28;20457;-55
2021/10/22 08:12:17;;;;;;;1.57;1.10;;;9.60;99.90;;;;;;5071501;28;20451;-55
2021/10/22 08:14:47;;;;;;;1.00;0.93;;;9.60;99.90;;;;;;5071948;28;20452;-55
2021/10/22 08:17:15;;;;;;;1.50;0.90;;;9.50;99.90;;;;;;5071280;28;20467;-55
2021/10/22 08:19:42;;;;;;;1.00;0.80;;;9.40;99.90;;;;;;5071722;28;20500;-55
2021/10/22 08:22:29;;;;;;;1.10;1.00;;;9.30;99.90;;;;;;5071466;28;20446;-55
2021/10/22 08:25:00;;;;;;;1.10;1.00;;;9.20;99.90;;;;;;5071876;28;20454;-55
2021/10/22 08:27:29;;;;;;;1.30;1.20;;;9.20;99.90;;;;;;5071036;28;21054;-55
2021/10/22 08:29:56;;;;;;;1.43;1.33;;;9.20;99.90;;;;;;5071360;28;20451;-54
2021/10/22 08:32:23;;;;;;;1.53;1.20;;;9.20;99.90;;;;;;5071077;28;20512;-55
2021/10/22 08:34:50;;;;;;;1.97;1.33;;;9.30;99.90;;;;;;5071501;28;20449;-55
2021/10/22 08:37:17;;;;;;;1.93;1.47;;;9.50;99.90;;;;;;5071367;28;20466;-55
2021/10/22 08:39:46;;;;;;;1.00;1.00;;;9.80;99.90;;;;;;5075567;28;20449;-55
2021/10/22 08:42:19;;;;;;;1.87;1.30;;;9.80;99.90;;;;;;5077825;28;20450;-55
2021/10/22 08:44:46;;;;;;;2.33;1.70;;;9.80;99.90;;;;;;5077847;28;20447;-55
2021/10/22 08:47:13;;;;;;;3.67;2.00;;;9.80;99.90;;;;;;5077668;28;20569;-55
2021/10/22 08:49:40;;;;;;;2.00;1.47;;;9.80;99.90;;;;;;5078227;28;20454;-55
2021/10/22 08:52:08;;;;;;;2.47;1.90;;;9.80;99.90;;;;;;5078039;28;20528;-54
2021/10/22 08:54:35;;;;;;;1.87;1.30;;;9.80;99.90;;;;;;5078022;28;20864;-55
2021/10/22 08:57:04;;;;;;;2.73;1.40;;;9.80;99.90;;;;;;5077437;28;20485;-55
2021/10/22 08:59:32;;;;;;;3.10;1.53;;;9.70;99.90;;;;;;5077715;28;20967;-55
2021/10/22 09:02:14;;;;;;;1.73;1.63;;;9.60;99.90;;;;;;5076753;28;20508;-54
2021/10/22 09:04:42;;;;;;;3.53;1.30;;;9.60;99.90;;;;;;5077963;28;20450;-54
2021/10/22 09:07:10;;;;;;;3.27;1.67;;;9.50;99.90;;;;;;5077853;28;20489;-55
2021/10/22 09:09:37;;;;;;;1.73;1.63;;;9.50;99.90;;;;;;5077743;28;20447;-55
2021/10/22 09:12:05;;;;;;;1.67;1.57;;;9.40;99.90;;;;;;5077576;28;20445;-54
2021/10/22 09:14:34;;;;;;;1.53;1.37;;;9.40;99.90;;;;;;5076593;28;21020;-54
2021/10/22 09:17:02;;;;;;;1.50;1.40;;;9.40;99.90;;;;;;5077801;28;21049;-54
2021/10/22 09:19:35;;;;;;;1.73;1.43;;;9.40;99.90;;;;;;5077332;28;20455;-54
2021/10/22 09:22:25;;;;;;;2.20;2.00;;;9.60;99.90;;;;;;5057679;28;20830;-54
2021/10/22 09:24:54;;;;;;;2.80;2.60;;;9.60;99.90;;;;;;5057733;28;20455;-54
2021/10/22 09:27:36;;;;;;;3.30;3.07;;;9.60;99.90;;;;;;5062468;28;20880;-54
2021/10/22 09:30:08;;;;;;;2.50;2.30;;;9.70;99.90;;;;;;5077618;28;20450;-54
2021/10/22 09:32:35;;;;;;;1.63;1.50;;;9.80;99.90;;;;;;5077639;28;21001;-54
2021/10/22 09:35:02;;;;;;;2.53;2.33;;;9.70;99.90;;;;;;5077421;28;20453;-54
2021/10/22 09:37:39;;;;;;;3.10;2.17;;;9.70;99.90;;;;;;5072059;28;20467;-54
2021/10/22 09:40:08;;;;;;;4.13;2.30;;;9.60;99.90;;;;;;5057560;28;20961;-54
2021/10/22 09:42:37;;;;;;;2.47;2.23;;;9.50;99.90;;;;;;5072120;28;21035;-54
2021/10/22 09:45:06;;;;;;;2.77;2.40;;;9.50;99.90;;;;;;5077650;28;20462;-54
2021/10/22 09:47:33;;;;;;;2.30;2.10;;;9.60;99.90;;;;;;5076642;28;20995;-54
2021/10/22 09:50:09;;;;;;;3.03;2.60;;;9.60;99.90;;;;;;5076286;28;21125;-54
2021/10/22 09:52:36;;;;;;;2.10;1.90;;;9.70;99.90;;;;;;5073590;28;20533;-54
2021/10/22 09:55:09;;;;;;;1.60;1.50;;;9.50;99.90;;;;;;5074358;28;20531;-54
2021/10/22 09:57:37;;;;;;;3.67;2.10;;;9.50;99.90;;;;;;5074173;28;20504;-54
2021/10/22 10:00:09;;;;;;;2.57;2.03;;;9.70;99.90;;;;;;5074106;28;20851;-54
2021/10/22 10:02:36;;;;;;;3.30;2.50;;;9.60;99.90;;;;;;5074401;28;20812;-54
2021/10/22 10:05:06;;;;;;;2.30;2.10;;;9.60;99.90;;;;;;5074218;28;20508;-54
2021/10/22 10:07:38;;;;;;;2.00;1.90;;;9.60;99.90;;;;;;5074050;28;20526;-55
2021/10/22 10:10:06;;;;;;;2.40;2.20;;;9.70;99.90;;;;;;5073571;28;20447;-54
2021/10/22 10:12:35;;;;;;;2.33;2.13;;;9.60;99.90;;;;;;5073695;28;20450;-54
2021/10/22 10:15:03;;;;;;;2.87;2.53;;;9.50;99.90;;;;;;5073982;28;20545;-55
2021/10/22 10:17:35;;;;;;;2.87;2.57;;;9.70;99.90;;;;;;5108363;22;20505;-61
2021/10/22 10:20:04;;;;;;;2.70;2.50;;;9.70;99.90;;;;;;5112343;28;20494;-61
2021/10/22 10:22:33;;;;;;;3.70;2.23;;;9.50;99.90;;;;;;5108953;28;20442;-61
2021/10/22 10:25:03;;;;;;;2.20;1.90;;;9.50;99.90;;;;;;5094285;28;20442;-61
2021/10/22 10:27:45;;;;;;;3.10;2.23;;;9.60;99.90;;;;;;5098003;28;20489;-61
2021/10/22 10:30:14;;;;;;;4.63;2.50;;;9.70;99.90;;;;;;5073840;28;20454;-61
2021/10/22 10:32:43;;;;;;;2.67;2.47;;;9.90;99.90;;;;;;5088009;28;20450;-60
2021/10/22 10:35:13;;;;;;;5.80;3.07;;;9.90;99.90;;;;;;5094235;28;20450;-60
2021/10/22 10:37:41;;;;;;;2.60;2.20;;;10.10;99.90;;;;;;5093286;28;20983;-60
2021/10/22 10:40:12;;;;;;;1.90;1.80;;;10.10;99.90;;;;;;5093797;28;20503;-61
2021/10/22 10:42:45;;;;;;;2.90;2.60;;;9.90;99.90;;;;;;5093168;28;20456;-60
2021/10/22 10:45:40;;;;;;;3.07;2.50;;;9.90;99.90;;;;;;5073472;28;20504;-60
2021/10/22 10:48:10;;;;;;;2.97;2.20;;;9.90;99.90;;;;;;5083046;28;20557;-60
2021/10/22 10:50:47;;;;;;;2.40;2.20;;;10.00;99.90;;;;;;5093606;28;20503;-60
2021/10/22 10:53:17;;;;;;;2.43;2.10;;;10.30;99.90;;;;;;5093110;28;20457;-60
2021/10/22 10:55:48;;;;;;;2.63;2.00;;;10.30;99.90;;;;;;5093060;28;20450;-60
2021/10/22 10:58:19;;;;;;;2.13;2.00;;;10.30;99.90;;;;;;5093689;28;20465;-60
2021/10/22 11:00:48;;;;;;;3.10;2.30;;;10.30;99.90;;;;;;5092408;28;20951;-60
2021/10/22 11:03:19;;;;;;;2.17;1.97;;;10.40;99.90;;;;;;5091975;28;20445;-60
2021/10/22 11:06:12;;;;;;;2.00;1.80;;;10.40;99.90;;;;;;5092699;28;20446;-60
2021/10/22 11:08:50;;;;;;;2.87;2.67;;;10.50;99.90;;;;;;5093079;28;20854;-61
2021/10/22 11:11:35;;;;;;;4.83;1.93;;;10.40;99.90;;;;;;5091889;28;20446;-61
2021/10/22 11:14:20;;;;;;;2.30;2.10;;;10.40;99.90;;;;;;5083064;28;20444;-60
2021/10/22 11:16:58;;;;;;;3.80;2.10;;;10.50;99.90;;;;;;5091526;28;20990;-60
2021/10/22 11:19:35;;;;;;;2.00;1.90;;;10.60;99.90;;;;;;5092777;28;20456;-60
2021/10/22 11:22:07;;;;;;;2.20;2.00;;;10.70;99.90;;;;;;5092751;28;20446;-61
2021/10/22 11:24:37;;;;;;;3.77;2.57;;;10.70;99.90;;;;;;5092862;28;20951;-60
2021/10/22 11:27:05;;;;;;;2.60;2.40;;;10.80;99.90;;;;;;5093030;28;20489;-60
2021/10/22 11:29:34;;;;;;;2.23;2.03;;;10.70;99.90;;;;;;5093042;28;20805;-61
2021/10/22 11:32:03;;;;;;;4.23;2.40;;;10.70;99.90;;;;;;5092173;28;20495;-60
2021/10/22 11:34:35;;;;;;;3.10;2.50;;;10.60;99.90;;;;;;5091704;28;20449;-60
2021/10/22 11:37:05;;;;;;;4.53;2.10;;;10.60;99.90;;;;;;5092309;28;20498;-61
2021/10/22 11:39:36;;;;;;;1.73;1.63;;;10.60;99.90;;;;;;5092731;28;20813;-60
2021/10/22 11:42:08;;;;;;;2.30;1.60;;;10.60;99.90;;;;;;5092479;28;20457;-60
2021/10/22 11:44:37;;;;;;;2.33;1.80;;;10.80;99.90;;;;;;5092424;28;20446;-60
2021/10/22 11:47:04;;;;;;;2.57;1.90;;;10.90;99.90;;;;;;5092357;28;20913;-60
2021/10/22 11:49:35;;;;;;;2.03;1.73;;;10.90;99.90;;;;;;5092745;28;20454;-60
2021/10/22 11:52:04;;;;;;;1.93;1.83;;;11.10;99.90;;;;;;5091635;28;20786;-60
2021/10/22 11:54:33;;;;;;;2.53;2.20;;;11.20;99.90;;;;;;5091422;28;20822;-61
2021/10/22 11:57:02;;;;;;;3.00;1.90;;;11.00;99.90;;;;;;5092047;28;20469;-60
2021/10/22 11:59:29;;;;;;;2.97;2.10;;;11.20;99.90;;;;;;5092396;28;20454;-60
2021/10/22 12:02:06;;;;;;;2.40;2.20;;;11.10;99.90;;;;;;5091601;28;20500;-60
2021/10/22 12:04:35;;;;;;;2.30;2.10;;;11.10;99.90;;;;;;5091374;28;20536;-60
2021/10/22 12:07:04;;;;;;;3.17;2.00;;;11.40;99.90;;;;;;5091551;28;20477;-60
2021/10/22 12:09:33;;;;;;;2.20;2.00;;;11.50;99.90;;;;;;5090928;28;20472;-61
2021/10/22 12:12:02;;;;;;;1.80;1.70;;;11.50;99.90;;;;;;5087324;28;20534;-61
2021/10/22 12:14:34;;;;;;;2.00;1.90;;;11.40;99.90;;;;;;5083564;28;20537;-60
2021/10/22 12:17:02;;;;;;;4.80;2.00;;;11.40;99.90;;;;;;5090561;28;20557;-61
2021/10/22 12:19:29;;;;;;;2.03;1.73;;;11.40;99.90;;;;;;5088895;28;20519;-60
2021/10/22 12:21:58;;;;;;;2.20;2.00;;;11.40;99.90;;;;;;5089646;28;20458;-60
2021/10/22 12:24:38;;;;;;;2.30;2.10;;;11.50;99.90;;;;;;5087358;28;21145;-61
2021/10/22 12:27:06;;;;;;;2.07;1.60;;;11.60;99.90;;;;;;5089694;28;20473;-61
2021/10/22 12:29:53;;;;;;;3.67;1.70;;;11.60;99.90;;;;;;5091174;28;20489;-60
2021/10/22 12:32:43;;;;;;;2.33;1.57;;;11.60;99.90;;;;;;5089476;28;20446;-60
2021/10/22 12:35:18;;;;;;;2.07;1.87;;;11.40;99.90;;;;;;5085740;28;20456;-60
2021/10/22 12:37:48;;;;;;;3.80;1.93;;;11.40;99.90;;;;;;5082830;28;20544;-60
2021/10/22 12:40:20;;;;;;;2.40;2.20;;;11.60;99.90;;;;;;5090499;28;20482;-61
2021/10/22 12:43:03;;;;;;;3.53;2.47;;;11.50;99.90;;;;;;5091469;28;20487;-60
2021/10/22 12:45:30;;;;;;;1.87;1.77;;;11.40;99.90;;;;;;5090429;28;20462;-61
2021/10/22 12:48:05;;;;;;;1.70;1.60;;;11.50;99.90;;;;;;5090692;28;20487;-60
2021/10/22 12:50:34;;;;;;;2.50;1.90;;;11.50;99.90;;;;;;5074532;28;20541;-60
2021/10/22 12:53:05;;;;;;;2.07;1.50;;;11.70;99.90;;;;;;5091530;28;20462;-60
2021/10/22 12:55:32;;;;;;;2.20;1.60;;;11.70;99.90;;;;;;5090169;28;20450;-61
2021/10/22 12:58:19;;;;;;;1.97;1.83;;;11.80;99.90;;;;;;5091081;28;20495;-60
2021/10/22 13:01:03;;;;;;;1.60;1.50;;;11.80;99.90;;;;;;5090856;28;20904;-61
2021/10/22 13:03:30;;;;;;;2.57;1.77;;;11.80;99.90;;;;;;5091013;28;20536;-61
2021/10/22 13:06:08;;;;;;;1.63;1.53;;;11.80;99.90;;;;;;5090909;28;20450;-60
2021/10/22 13:08:44;;;;;;;3.33;1.83;;;12.00;99.90;;;;;;5091304;28;20530;-60
2021/10/22 13:22:19;;;;;;;1.50;1.40;;;12.20;99.90;;;;;;5091127;28;20441;-59